createdAt,value
2019-03-06T00:01:27.107Z,4.80
2019-03-06T00:04:01.883Z,5.15
2019-03-06T00:06:36.570Z,5.37
2019-03-06T00:09:11.559Z,6.40
2019-03-06T00:11:46.581Z,5.50
2019-03-06T00:16:55.765Z,5.83
2019-03-06T00:19:30.172Z,5.95
2019-03-06T00:22:07.023Z,5.55
2019-03-06T00:24:41.684Z,5.65
2019-03-06T00:27:16.321Z,5.42
2019-03-06T00:29:51.002Z,5.65
2019-03-06T00:32:25.700Z,5.50
2019-03-06T00:35:01.780Z,5.72
2019-03-06T00:37:36.322Z,6.22
2019-03-06T00:40:19.561Z,6.10
2019-03-06T00:45:28.113Z,6.33
2019-03-06T00:48:03.071Z,6.70
2019-03-06T00:50:37.798Z,6.33
2019-03-06T00:53:12.972Z,6.35
2019-03-06T00:55:47.492Z,6.70
2019-03-06T00:58:22.148Z,7.20
2019-03-06T01:00:57.814Z,7.15
2019-03-06T01:03:32.587Z,6.92
2019-03-06T01:06:07.498Z,6.72
2019-03-06T01:08:42.176Z,7.25
2019-03-06T01:11:16.561Z,7.15
2019-03-06T01:13:51.080Z,6.65
2019-03-06T01:16:25.937Z,6.80
2019-03-06T01:19:00.606Z,7.75
2019-03-06T01:24:13.698Z,7.08
2019-03-06T01:26:48.496Z,6.95
2019-03-06T01:29:23.325Z,6.78
2019-03-06T01:31:59.720Z,6.47
2019-03-06T01:34:48.968Z,6.80
2019-03-06T01:37:52.539Z,6.75
2019-03-06T01:40:48.307Z,6.78
2019-03-06T01:43:28.160Z,7.20
2019-03-06T01:46:02.838Z,7.40
2019-03-06T01:48:38.835Z,6.75
2019-03-06T01:51:14.116Z,6.40
2019-03-06T01:53:48.582Z,6.65
2019-03-06T01:58:57.321Z,7.80
2019-03-06T02:01:32.660Z,8.23
2019-03-06T02:04:08.125Z,10.03
2019-03-06T02:06:42.835Z,10.85
2019-03-06T02:09:20.327Z,11.57
2019-03-06T02:11:55.076Z,11.10
2019-03-06T02:14:30.520Z,11.38
2019-03-06T02:17:05.324Z,10.60
2019-03-06T02:19:40.847Z,10.50
2019-03-06T02:22:15.575Z,11.05
2019-03-06T02:24:50.018Z,10.60
2019-03-06T02:27:25.088Z,9.63
2019-03-06T02:30:00.297Z,9.70
2019-03-06T02:35:09.905Z,9.73
2019-03-06T02:37:44.490Z,8.63
2019-03-06T02:40:19.464Z,9.20
2019-03-06T02:42:54.130Z,8.53
2019-03-06T02:45:29.193Z,8.65
2019-03-06T02:48:03.692Z,8.43
2019-03-06T02:50:41.326Z,8.35
2019-03-06T02:53:15.846Z,8.83
2019-03-06T02:55:50.716Z,8.68
2019-03-06T02:58:33.326Z,8.38
2019-03-06T03:01:33.708Z,9.43
2019-03-06T03:04:26.644Z,10.03
2019-03-06T03:12:17.519Z,11.18
2019-03-06T03:14:52.532Z,10.53
2019-03-06T03:17:27.176Z,11.18
2019-03-06T03:20:01.695Z,10.43
2019-03-06T03:22:36.165Z,11.50
2019-03-06T03:25:10.693Z,11.65
2019-03-06T03:27:45.318Z,12.20
2019-03-06T03:30:19.790Z,12.30
2019-03-06T03:32:54.565Z,11.40
2019-03-06T03:35:29.552Z,11.40
2019-03-06T03:38:04.518Z,12.88
2019-03-06T03:40:39.165Z,14.15
2019-03-06T03:43:14.033Z,12.98
2019-03-06T03:45:49.027Z,13.13
2019-03-06T03:48:23.808Z,13.70
2019-03-06T03:50:58.679Z,13.00
2019-03-06T03:56:07.347Z,12.98
2019-03-06T03:58:42.066Z,13.25
2019-03-06T04:01:16.992Z,11.80
2019-03-06T04:03:51.465Z,12.28
2019-03-06T04:09:01.569Z,12.37
2019-03-06T04:11:38.057Z,11.08
2019-03-06T04:14:12.798Z,12.25
2019-03-06T04:16:47.904Z,11.22
2019-03-06T04:19:22.425Z,11.78
2019-03-06T04:21:57.005Z,10.38
2019-03-06T04:24:32.020Z,10.45
2019-03-06T04:27:07.552Z,10.43
2019-03-06T04:29:42.147Z,10.93
2019-03-06T04:32:16.610Z,11.35
2019-03-06T04:37:25.190Z,9.75
2019-03-06T04:39:59.781Z,9.60
2019-03-06T04:42:34.744Z,10.75
2019-03-06T04:45:09.552Z,10.18
2019-03-06T04:47:44.164Z,11.60
2019-03-06T04:50:18.728Z,11.70
2019-03-06T04:55:27.828Z,11.08
2019-03-06T04:58:02.567Z,10.60
2019-03-06T05:00:37.122Z,10.80
2019-03-06T05:03:11.628Z,10.45
2019-03-06T05:05:46.665Z,11.10
2019-03-06T05:10:58.279Z,12.33
2019-03-06T05:13:32.874Z,12.40
2019-03-06T05:16:07.529Z,11.95
2019-03-06T05:18:51.142Z,11.35
2019-03-06T05:21:25.876Z,12.30
2019-03-06T05:24:00.681Z,11.22
2019-03-06T05:26:35.536Z,11.70
2019-03-06T05:29:10.059Z,10.70
2019-03-06T05:32:33.982Z,10.58
2019-03-06T05:35:58.973Z,11.12
2019-03-06T05:38:48.321Z,10.82
2019-03-06T05:43:57.065Z,12.13
2019-03-06T05:46:31.557Z,11.15
2019-03-06T05:51:54.783Z,10.55
2019-03-06T05:57:02.813Z,12.10
2019-03-06T05:59:37.506Z,13.45
2019-03-06T06:04:47.329Z,12.35
2019-03-06T06:07:22.000Z,12.63
2019-03-06T06:09:56.574Z,12.07
2019-03-06T06:17:41.312Z,11.35
2019-03-06T06:20:16.307Z,11.75
2019-03-06T06:23:10.352Z,12.37
2019-03-06T06:25:45.562Z,12.33
2019-03-06T06:28:20.354Z,11.90
2019-03-06T06:30:55.020Z,12.43
2019-03-06T06:33:30.034Z,12.28
2019-03-06T06:36:05.116Z,13.22
2019-03-06T06:38:39.911Z,13.50
2019-03-06T06:41:15.004Z,12.60
2019-03-06T06:43:49.701Z,13.88
2019-03-06T06:46:24.327Z,14.65
2019-03-06T06:48:59.140Z,13.80
2019-03-06T06:52:58.678Z,13.05
2019-03-06T06:56:35.536Z,13.32
2019-03-06T07:00:18.665Z,12.53
2019-03-06T07:04:22.537Z,14.50
2019-03-06T07:10:10.688Z,15.60
2019-03-06T07:13:10.954Z,15.72
2019-03-06T07:15:59.730Z,16.30
2019-03-06T07:18:42.879Z,16.42
2019-03-06T07:21:49.082Z,16.48
2019-03-06T07:24:38.361Z,15.32
2019-03-06T07:27:41.879Z,16.12
2019-03-06T07:30:34.845Z,15.43
2019-03-06T07:33:28.650Z,15.75
2019-03-06T07:36:29.038Z,15.85
2019-03-06T07:39:23.638Z,15.40
2019-03-06T07:46:01.720Z,15.98
2019-03-06T07:49:19.313Z,13.43
2019-03-06T07:52:11.053Z,13.25
2019-03-06T07:55:17.612Z,12.88
2019-03-06T08:01:45.751Z,11.83
2019-03-06T08:04:21.315Z,11.30
2019-03-06T08:07:27.539Z,11.33
2019-03-06T08:13:00.879Z,10.43
2019-03-06T08:16:01.149Z,8.25
2019-03-06T08:18:47.520Z,6.95
2019-03-06T08:22:00.587Z,6.53
2019-03-06T08:24:51.305Z,5.40
2019-03-06T08:27:26.560Z,5.20
2019-03-06T08:30:01.819Z,4.70
2019-03-06T08:32:37.839Z,4.62
2019-03-06T08:35:13.584Z,4.67
2019-03-06T08:40:23.555Z,5.30
2019-03-06T08:45:41.547Z,4.83
2019-03-06T08:48:25.363Z,4.75
2019-03-06T08:51:09.063Z,4.30
2019-03-06T08:53:50.162Z,4.20
2019-03-06T08:56:31.144Z,4.60
2019-03-06T08:59:30.515Z,4.55
2019-03-06T09:07:53.724Z,4.50
2019-03-06T09:11:02.761Z,5.00
2019-03-06T09:13:42.938Z,4.30
2019-03-06T09:16:37.558Z,3.95
2019-03-06T09:22:19.064Z,3.47
2019-03-06T09:25:04.638Z,3.27
2019-03-06T09:27:51.907Z,3.10
2019-03-06T09:30:40.119Z,3.12
2019-03-06T09:33:33.550Z,3.37
2019-03-06T09:39:15.562Z,3.58
2019-03-06T09:45:01.801Z,3.00
2019-03-06T09:50:58.411Z,2.80
2019-03-06T09:53:58.651Z,2.70
2019-03-06T09:56:44.306Z,2.30
2019-03-06T09:59:26.917Z,2.40
2019-03-06T10:02:11.710Z,2.60
2019-03-06T10:04:56.173Z,2.75
2019-03-06T10:07:41.321Z,2.65
2019-03-06T10:10:46.185Z,2.98
2019-03-06T10:13:42.035Z,2.75
2019-03-06T10:16:48.491Z,2.50
2019-03-06T10:21:54.563Z,2.40
2019-03-06T10:24:29.307Z,2.80
2019-03-06T10:27:04.112Z,2.45
2019-03-06T10:32:13.957Z,2.00
2019-03-06T10:34:49.293Z,2.33
2019-03-06T10:37:24.047Z,2.15
2019-03-06T10:40:00.169Z,1.70
2019-03-06T10:42:36.222Z,1.85
2019-03-06T10:45:11.813Z,1.80
2019-03-06T10:47:46.851Z,1.80
2019-03-06T10:50:26.949Z,2.08
2019-03-06T10:52:59.845Z,1.50
2019-03-06T10:55:35.496Z,1.37
2019-03-06T10:58:10.549Z,1.00
2019-03-06T11:06:13.590Z,1.10
2019-03-06T11:08:48.785Z,1.42
2019-03-06T11:11:23.555Z,1.05
2019-03-06T11:16:39.807Z,0.78
2019-03-06T11:18:55.975Z,1.00
2019-03-06T11:19:15.099Z,0.90
2019-03-06T11:21:50.038Z,0.80
2019-03-06T11:24:25.032Z,0.80
2019-03-06T11:27:00.304Z,0.68
2019-03-06T11:29:35.079Z,0.80
2019-03-06T11:32:10.561Z,0.72
2019-03-06T11:39:53.472Z,0.90
2019-03-06T11:42:28.521Z,0.60
2019-03-06T11:45:03.739Z,0.75
2019-03-06T11:47:39.309Z,0.70
2019-03-06T11:50:15.132Z,0.93
2019-03-06T11:52:53.635Z,0.80
2019-03-06T11:55:29.973Z,0.80
2019-03-06T11:58:06.821Z,0.78
2019-03-06T12:00:44.587Z,0.80
2019-03-06T12:03:22.453Z,0.82
2019-03-06T12:05:58.294Z,0.80
2019-03-06T12:08:33.632Z,1.00
2019-03-06T12:13:44.139Z,0.70
2019-03-06T12:16:23.311Z,0.90
2019-03-06T12:18:58.053Z,0.78
2019-03-06T12:21:32.882Z,0.68
2019-03-06T12:24:08.115Z,0.53
2019-03-06T12:26:43.212Z,0.80
2019-03-06T12:29:18.012Z,0.60
2019-03-06T12:31:52.707Z,0.65
2019-03-06T12:34:27.378Z,0.42
2019-03-06T12:37:02.120Z,0.75
2019-03-06T12:39:37.309Z,0.70
2019-03-06T12:42:14.955Z,0.50
2019-03-06T12:44:48.810Z,0.70
2019-03-06T12:47:28.758Z,0.75
2019-03-06T12:50:06.261Z,0.65
2019-03-06T12:52:41.592Z,0.80
2019-03-06T12:57:59.149Z,0.70
2019-03-06T13:00:29.235Z,0.70
2019-03-06T13:03:04.326Z,0.72
2019-03-06T13:05:39.137Z,0.88
2019-03-06T13:08:19.723Z,0.70
2019-03-06T13:10:53.168Z,0.90
2019-03-06T13:13:35.200Z,0.53
2019-03-06T13:21:12.432Z,0.68
2019-03-06T13:23:49.587Z,1.00
2019-03-06T13:26:24.396Z,0.82
2019-03-06T13:28:58.838Z,0.65
2019-03-06T13:31:33.968Z,0.90
2019-03-06T13:34:31.398Z,1.00
2019-03-06T13:37:06.582Z,1.27
2019-03-06T13:39:41.791Z,1.20
2019-03-06T13:42:19.820Z,1.55
2019-03-06T13:44:59.803Z,1.37
2019-03-06T13:47:34.593Z,0.82
2019-03-06T13:52:43.556Z,1.00
2019-03-06T13:57:52.721Z,1.07
2019-03-06T14:03:03.463Z,1.00
2019-03-06T14:05:38.017Z,1.10
2019-03-06T14:08:12.613Z,0.98
2019-03-06T14:13:22.745Z,1.35
2019-03-06T14:15:59.879Z,1.02
2019-03-06T14:18:34.896Z,1.00
2019-03-06T14:21:10.028Z,1.22
2019-03-06T14:23:44.887Z,1.00
2019-03-06T14:26:19.825Z,1.22
2019-03-06T14:28:54.635Z,1.20
2019-03-06T14:31:29.576Z,1.15
2019-03-06T14:36:38.512Z,1.20
2019-03-06T14:40:26.318Z,1.00
2019-03-06T14:43:02.667Z,1.12
2019-03-06T14:45:37.895Z,1.30
2019-03-06T14:48:13.127Z,1.52
2019-03-06T14:50:58.154Z,1.10
2019-03-06T14:53:33.109Z,1.40
2019-03-06T14:56:08.857Z,1.30
2019-03-06T14:58:43.884Z,1.30
2019-03-06T15:01:18.693Z,1.10
2019-03-06T15:09:01.665Z,1.45
2019-03-06T15:11:38.199Z,1.65
2019-03-06T15:14:12.857Z,2.12
2019-03-06T15:16:47.603Z,1.55
2019-03-06T15:19:22.705Z,1.60
2019-03-06T15:21:57.605Z,1.80
2019-03-06T15:24:40.917Z,1.80
2019-03-06T15:29:43.308Z,1.60
2019-03-06T15:32:22.316Z,1.80
2019-03-06T15:34:56.941Z,1.50
2019-03-06T15:37:31.835Z,1.42
2019-03-06T15:40:16.420Z,1.62
2019-03-06T15:42:51.626Z,2.10
2019-03-06T15:45:29.030Z,1.80
2019-03-06T15:48:04.039Z,2.20
2019-03-06T15:50:39.313Z,2.20
2019-03-06T15:53:24.109Z,2.20
2019-03-06T15:55:59.069Z,2.37
2019-03-06T15:58:34.565Z,2.50
2019-03-06T16:03:43.121Z,3.67
2019-03-06T16:06:20.793Z,3.80
2019-03-06T16:08:55.323Z,3.10
2019-03-06T16:11:30.437Z,2.70
2019-03-06T16:14:06.114Z,2.08
2019-03-06T16:16:41.114Z,2.20
2019-03-06T16:19:16.165Z,1.77
2019-03-06T16:21:50.822Z,1.80
2019-03-06T16:24:25.505Z,2.33
2019-03-06T16:27:00.139Z,2.15
2019-03-06T16:29:35.070Z,2.20
2019-03-06T16:32:09.977Z,2.00
2019-03-06T16:34:44.865Z,2.20
2019-03-06T16:37:19.841Z,2.45
2019-03-06T16:39:54.690Z,2.60
2019-03-06T16:42:29.831Z,2.42
2019-03-06T16:45:05.911Z,2.98
2019-03-06T16:47:42.909Z,2.80
2019-03-06T16:50:19.145Z,3.47
2019-03-06T16:52:54.145Z,4.25
2019-03-06T16:55:29.162Z,3.25
2019-03-06T16:58:05.901Z,3.70
2019-03-06T17:00:49.324Z,2.92
2019-03-06T17:03:24.470Z,2.80
2019-03-06T17:05:59.764Z,2.75
2019-03-06T17:08:35.064Z,3.10
2019-03-06T17:11:12.064Z,3.02
2019-03-06T17:13:47.023Z,3.20
2019-03-06T17:16:21.882Z,4.05
2019-03-06T17:19:02.181Z,3.95
2019-03-06T17:21:37.071Z,3.55
2019-03-06T17:24:12.120Z,4.55
2019-03-06T17:26:47.621Z,4.28
2019-03-06T17:34:32.887Z,5.58
2019-03-06T17:37:08.135Z,4.62
2019-03-06T17:39:45.517Z,4.70
2019-03-06T17:42:22.134Z,5.15
2019-03-06T17:44:57.469Z,4.33
2019-03-06T17:47:34.458Z,4.40
2019-03-06T17:50:12.074Z,4.80
2019-03-06T17:52:46.558Z,4.83
2019-03-06T17:57:55.890Z,4.58
2019-03-06T18:00:52.173Z,4.42
2019-03-06T18:03:49.188Z,4.55
2019-03-06T18:06:23.585Z,5.30
2019-03-06T18:14:32.444Z,4.67
2019-03-06T18:17:07.052Z,4.60
2019-03-06T18:19:42.313Z,5.42
2019-03-06T18:22:16.979Z,4.37
2019-03-06T18:24:52.768Z,4.70
2019-03-06T18:27:27.682Z,4.75
2019-03-06T18:30:02.591Z,5.28
2019-03-06T18:32:37.567Z,5.40
2019-03-06T18:35:14.349Z,4.35
2019-03-06T18:37:49.545Z,4.35
2019-03-06T18:40:25.173Z,5.30
2019-03-06T18:43:00.124Z,4.60
2019-03-06T18:45:35.627Z,5.30
2019-03-06T18:48:10.864Z,5.25
2019-03-06T18:50:45.880Z,3.80
2019-03-06T18:53:20.669Z,3.95
2019-03-06T18:55:55.841Z,4.40
2019-03-06T18:58:33.163Z,4.08
2019-03-06T19:01:08.109Z,4.70
2019-03-06T19:03:43.447Z,4.40
2019-03-06T19:09:40.643Z,4.25
2019-03-06T19:12:15.534Z,9.03
2019-03-06T19:17:24.497Z,5.00
2019-03-06T19:19:59.625Z,5.35
2019-03-06T19:22:34.478Z,7.00
2019-03-06T19:25:11.032Z,4.70
2019-03-06T19:27:46.306Z,5.22
2019-03-06T19:30:22.544Z,4.90
2019-03-06T19:32:57.595Z,4.95
2019-03-06T19:35:34.552Z,5.28
2019-03-06T19:38:09.580Z,6.70
2019-03-06T19:40:45.545Z,5.70
2019-03-06T19:45:55.120Z,7.92
2019-03-06T19:48:30.145Z,4.85
2019-03-06T19:51:05.464Z,3.58
2019-03-06T19:56:14.451Z,4.90
2019-03-06T19:58:49.458Z,5.10
2019-03-06T20:01:24.602Z,4.62
2019-03-06T20:03:59.524Z,4.97
2019-03-06T20:09:26.104Z,5.10
2019-03-06T20:12:01.032Z,4.50
2019-03-06T20:14:35.873Z,4.53
2019-03-06T20:17:10.590Z,4.40
2019-03-06T20:22:19.321Z,6.03
2019-03-06T20:24:54.229Z,4.75
2019-03-06T20:27:29.149Z,4.42
2019-03-06T20:30:05.138Z,4.53
2019-03-06T20:35:22.615Z,4.62
2019-03-06T20:38:00.566Z,4.60
2019-03-06T20:40:35.719Z,5.00
2019-03-06T20:43:10.554Z,5.58
2019-03-06T20:48:20.165Z,5.22
2019-03-06T20:50:55.171Z,5.30
2019-03-06T20:53:30.151Z,5.50
2019-03-06T20:56:06.351Z,5.12
2019-03-06T20:58:41.335Z,5.53
2019-03-06T21:01:16.549Z,5.20
2019-03-06T21:03:52.044Z,4.80
2019-03-06T21:06:33.495Z,4.92
2019-03-06T21:11:40.542Z,5.50
2019-03-06T21:14:15.336Z,5.65
2019-03-06T21:16:50.523Z,5.47
2019-03-06T21:19:26.484Z,5.00
2019-03-06T21:24:35.617Z,5.58
2019-03-06T21:27:10.490Z,4.55
2019-03-06T21:32:19.793Z,5.78
2019-03-06T21:34:55.104Z,5.87
2019-03-06T21:37:30.045Z,6.80
2019-03-06T21:40:06.272Z,6.08
2019-03-06T21:42:41.155Z,6.47
2019-03-06T21:45:16.836Z,7.15
2019-03-06T21:47:51.909Z,7.42
2019-03-06T21:50:26.689Z,8.93
2019-03-06T21:55:35.990Z,7.30
2019-03-06T21:58:11.272Z,7.28
2019-03-06T22:00:46.033Z,6.75
2019-03-06T22:03:21.176Z,6.53
2019-03-06T22:05:56.349Z,5.78
2019-03-06T22:08:31.144Z,5.50
2019-03-06T22:11:06.005Z,6.10
2019-03-06T22:13:40.840Z,6.00
2019-03-06T22:16:15.930Z,5.47
2019-03-06T22:18:50.595Z,6.15
2019-03-06T22:24:04.320Z,6.97
2019-03-06T22:26:38.991Z,7.33
2019-03-06T22:29:14.037Z,6.03
2019-03-06T22:31:49.090Z,6.83
2019-03-06T22:34:27.338Z,7.00
2019-03-06T22:37:02.189Z,6.95
2019-03-06T22:39:37.023Z,6.87
2019-03-06T22:42:11.569Z,6.45
2019-03-06T22:44:46.038Z,8.10
2019-03-06T22:47:22.430Z,6.72
2019-03-06T22:49:57.094Z,6.87
2019-03-06T22:52:31.847Z,7.00
2019-03-06T22:55:10.808Z,7.12
2019-03-06T22:57:45.837Z,6.80
2019-03-06T23:00:55.397Z,6.30
2019-03-06T23:03:33.878Z,7.45
2019-03-06T23:06:08.658Z,6.37
2019-03-06T23:11:22.318Z,5.10
2019-03-06T23:13:57.043Z,5.30
2019-03-06T23:16:31.799Z,5.53
2019-03-06T23:19:06.961Z,5.25
2019-03-06T23:21:42.550Z,5.35
2019-03-06T23:24:17.435Z,5.60
2019-03-06T23:26:52.017Z,5.17
2019-03-06T23:29:27.056Z,5.00
2019-03-06T23:32:01.961Z,4.97
2019-03-06T23:34:36.697Z,4.53
2019-03-06T23:39:45.633Z,5.00
2019-03-06T23:42:20.517Z,4.75
2019-03-06T23:47:28.827Z,4.10
2019-03-06T23:50:04.712Z,4.33
2019-03-06T23:52:57.584Z,4.83
2019-03-06T23:55:32.506Z,4.60
2019-03-06T23:58:09.848Z,4.72
